sensor_id;sensor_type;location;lat;lon;timestamp;temperature;humidity
14985;DHT22;7588;62.368;25.902;2022-08-11T00:01:53;16.40;99.90
14985;DHT22;7588;62.368;25.902;2022-08-11T00:04:22;16.40;99.90
14985;DHT22;7588;62.368;25.902;2022-08-11T00:06:48;16.30;99.90
14985;DHT22;7588;62.368;25.902;2022-08-11T00:09:21;16.30;99.90
14985;DHT22;7588;62.368;25.902;2022-08-11T00:11:50;16.10;99.90
14985;DHT22;7588;62.368;25.902;2022-08-11T00:14:33;16.10;99.90
14985;DHT22;7588;62.368;25.902;2022-08-11T00:17:00;16.00;99.90
14985;DHT22;7588;62.368;25.902;2022-08-11T00:19:29;16.00;99.90
14985;DHT22;7588;62.368;25.902;2022-08-11T00:21:57;16.00;99.90
14985;DHT22;7588;62.368;25.902;2022-08-11T00:24:24;16.00;99.90
14985;DHT22;7588;62.368;25.902;2022-08-11T00:26:56;15.90;99.90
14985;DHT22;7588;62.368;25.902;2022-08-11T00:29:22;15.80;99.90
14985;DHT22;7588;62.368;25.902;2022-08-11T00:31:51;15.80;99.90
14985;DHT22;7588;62.368;25.902;2022-08-11T00:34:24;15.60;99.90
14985;DHT22;7588;62.368;25.902;2022-08-11T00:37:09;15.60;99.90
14985;DHT22;7588;62.368;25.902;2022-08-11T00:39:44;15.50;99.90
14985;DHT22;7588;62.368;25.902;2022-08-11T00:42:26;15.40;99.90
14985;DHT22;7588;62.368;25.902;2022-08-11T00:48:25;15.20;99.90
14985;DHT22;7588;62.368;25.902;2022-08-11T00:52:00;15.00;99.90
14985;DHT22;7588;62.368;25.902;2022-08-11T01:02:47;14.80;99.90
14985;DHT22;7588;62.368;25.902;2022-08-11T01:16:12;14.80;99.90
14985;DHT22;7588;62.368;25.902;2022-08-11T01:18:59;14.80;99.90
14985;DHT22;7588;62.368;25.902;2022-08-11T01:44:20;14.80;99.90
14985;DHT22;7588;62.368;25.902;2022-08-11T01:47:22;14.80;99.90
14985;DHT22;7588;62.368;25.902;2022-08-11T01:56:00;15.00;99.90
14985;DHT22;7588;62.368;25.902;2022-08-11T01:58:34;15.10;99.90
14985;DHT22;7588;62.368;25.902;2022-08-11T02:07:02;15.00;99.90
14985;DHT22;7588;62.368;25.902;2022-08-11T02:14:45;15.10;99.90
14985;DHT22;7588;62.368;25.902;2022-08-11T02:17:49;15.10;99.90
14985;DHT22;7588;62.368;25.902;2022-08-11T02:20:17;15.10;99.90
14985;DHT22;7588;62.368;25.902;2022-08-11T02:26:21;15.10;99.90
14985;DHT22;7588;62.368;25.902;2022-08-11T02:31:45;15.00;99.90
14985;DHT22;7588;62.368;25.902;2022-08-11T02:37:21;15.10;99.90
14985;DHT22;7588;62.368;25.902;2022-08-11T02:40:29;15.10;99.90
14985;DHT22;7588;62.368;25.902;2022-08-11T02:45:55;15.20;99.90
14985;DHT22;7588;62.368;25.902;2022-08-11T02:54:38;15.40;99.90
14985;DHT22;7588;62.368;25.902;2022-08-11T02:57:28;15.30;99.90
14985;DHT22;7588;62.368;25.902;2022-08-11T03:00:12;15.40;99.90
14985;DHT22;7588;62.368;25.902;2022-08-11T03:05:44;15.40;99.90
14985;DHT22;7588;62.368;25.902;2022-08-11T03:11:11;15.40;99.90
14985;DHT22;7588;62.368;25.902;2022-08-11T03:17:27;15.40;99.90
14985;DHT22;7588;62.368;25.902;2022-08-11T03:23:08;15.50;99.90
14985;DHT22;7588;62.368;25.902;2022-08-11T03:25:58;15.60;99.90
14985;DHT22;7588;62.368;25.902;2022-08-11T03:28:49;15.60;99.90
14985;DHT22;7588;62.368;25.902;2022-08-11T03:34:00;15.70;99.90
14985;DHT22;7588;62.368;25.902;2022-08-11T03:39:57;15.90;99.90
14985;DHT22;7588;62.368;25.902;2022-08-11T03:42:52;15.90;99.90
14985;DHT22;7588;62.368;25.902;2022-08-11T03:45:36;16.00;99.90
14985;DHT22;7588;62.368;25.902;2022-08-11T03:48:20;16.10;99.90
14985;DHT22;7588;62.368;25.902;2022-08-11T04:15:21;16.40;99.90
14985;DHT22;7588;62.368;25.902;2022-08-11T04:21:02;16.50;99.90
14985;DHT22;7588;62.368;25.902;2022-08-11T04:31:29;16.70;99.90
14985;DHT22;7588;62.368;25.902;2022-08-11T04:37:27;16.90;99.90
14985;DHT22;7588;62.368;25.902;2022-08-11T04:57:53;17.20;99.90
14985;DHT22;7588;62.368;25.902;2022-08-11T05:12:45;17.70;99.90
14985;DHT22;7588;62.368;25.902;2022-08-11T05:15:17;17.80;99.90
14985;DHT22;7588;62.368;25.902;2022-08-11T05:18:23;17.90;99.90
14985;DHT22;7588;62.368;25.902;2022-08-11T05:21:12;17.90;99.90
14985;DHT22;7588;62.368;25.902;2022-08-11T05:24:08;17.90;99.90
14985;DHT22;7588;62.368;25.902;2022-08-11T05:27:00;18.00;99.90
14985;DHT22;7588;62.368;25.902;2022-08-11T05:29:52;18.10;99.90
14985;DHT22;7588;62.368;25.902;2022-08-11T05:32:42;18.10;99.90
14985;DHT22;7588;62.368;25.902;2022-08-11T05:35:49;18.20;99.90
14985;DHT22;7588;62.368;25.902;2022-08-11T05:38:23;18.20;99.90
14985;DHT22;7588;62.368;25.902;2022-08-11T05:41:12;18.20;99.90
14985;DHT22;7588;62.368;25.902;2022-08-11T05:44:01;18.30;99.90
14985;DHT22;7588;62.368;25.902;2022-08-11T05:46:47;18.50;99.90
14985;DHT22;7588;62.368;25.902;2022-08-11T05:49:32;18.60;99.90
14985;DHT22;7588;62.368;25.902;2022-08-11T05:52:25;18.60;99.90
14985;DHT22;7588;62.368;25.902;2022-08-11T05:55:10;18.70;99.90
14985;DHT22;7588;62.368;25.902;2022-08-11T05:58:02;18.90;99.90
14985;DHT22;7588;62.368;25.902;2022-08-11T06:00:29;18.90;99.90
14985;DHT22;7588;62.368;25.902;2022-08-11T06:03:00;19.00;99.90
14985;DHT22;7588;62.368;25.902;2022-08-11T06:05:36;19.10;99.90
14985;DHT22;7588;62.368;25.902;2022-08-11T06:08:06;19.10;99.90
14985;DHT22;7588;62.368;25.902;2022-08-11T06:10:35;19.10;99.90
14985;DHT22;7588;62.368;25.902;2022-08-11T06:13:02;19.00;99.90
14985;DHT22;7588;62.368;25.902;2022-08-11T06:15:34;18.90;99.90
14985;DHT22;7588;62.368;25.902;2022-08-11T06:18:09;18.90;99.90
14985;DHT22;7588;62.368;25.902;2022-08-11T06:20:49;19.00;99.90
14985;DHT22;7588;62.368;25.902;2022-08-11T06:23:17;19.00;99.90
14985;DHT22;7588;62.368;25.902;2022-08-11T06:25:51;19.10;99.90
14985;DHT22;7588;62.368;25.902;2022-08-11T06:28:18;19.30;99.90
14985;DHT22;7588;62.368;25.902;2022-08-11T06:30:55;19.40;99.90
14985;DHT22;7588;62.368;25.902;2022-08-11T06:33:39;19.50;99.90
14985;DHT22;7588;62.368;25.902;2022-08-11T06:39:42;19.60;99.90
14985;DHT22;7588;62.368;25.902;2022-08-11T06:42:15;19.80;99.90
14985;DHT22;7588;62.368;25.902;2022-08-11T06:45:06;20.00;99.90
14985;DHT22;7588;62.368;25.902;2022-08-11T06:47:44;20.20;99.90
14985;DHT22;7588;62.368;25.902;2022-08-11T06:50:16;20.50;99.90
14985;DHT22;7588;62.368;25.902;2022-08-11T06:53:06;20.50;99.90
14985;DHT22;7588;62.368;25.902;2022-08-11T06:55:35;20.60;99.90
14985;DHT22;7588;62.368;25.902;2022-08-11T06:58:27;20.70;99.90
14985;DHT22;7588;62.368;25.902;2022-08-11T07:01:14;21.00;99.90
14985;DHT22;7588;62.368;25.902;2022-08-11T07:03:48;21.40;99.90
14985;DHT22;7588;62.368;25.902;2022-08-11T07:12:44;22.40;99.90
14985;DHT22;7588;62.368;25.902;2022-08-11T07:15:32;22.70;99.90
14985;DHT22;7588;62.368;25.902;2022-08-11T07:18:31;22.70;99.90
14985;DHT22;7588;62.368;25.902;2022-08-11T07:21:37;22.50;99.90
14985;DHT22;7588;62.368;25.902;2022-08-11T07:24:27;22.90;99.90
14985;DHT22;7588;62.368;25.902;2022-08-11T07:27:18;23.70;99.90
14985;DHT22;7588;62.368;25.902;2022-08-11T07:30:07;24.40;99.90
14985;DHT22;7588;62.368;25.902;2022-08-11T07:33:09;24.80;99.90
14985;DHT22;7588;62.368;25.902;2022-08-11T07:35:33;24.90;99.90
14985;DHT22;7588;62.368;25.902;2022-08-11T07:38:05;24.80;99.90
14985;DHT22;7588;62.368;25.902;2022-08-11T07:40:32;24.60;99.90
14985;DHT22;7588;62.368;25.902;2022-08-11T07:42:59;24.60;99.90
14985;DHT22;7588;62.368;25.902;2022-08-11T07:45:26;24.50;99.90
14985;DHT22;7588;62.368;25.902;2022-08-11T07:48:13;24.60;99.90
14985;DHT22;7588;62.368;25.902;2022-08-11T07:50:58;24.90;99.90
14985;DHT22;7588;62.368;25.902;2022-08-11T07:53:45;24.60;99.90
14985;DHT22;7588;62.368;25.902;2022-08-11T07:56:11;24.50;99.90
14985;DHT22;7588;62.368;25.902;2022-08-11T07:58:40;24.70;99.90
14985;DHT22;7588;62.368;25.902;2022-08-11T08:01:25;25.00;99.90
14985;DHT22;7588;62.368;25.902;2022-08-11T08:04:12;24.80;99.90
14985;DHT22;7588;62.368;25.902;2022-08-11T08:06:57;24.70;99.90
14985;DHT22;7588;62.368;25.902;2022-08-11T08:09:42;25.00;99.90
14985;DHT22;7588;62.368;25.902;2022-08-11T08:12:28;25.20;99.90
14985;DHT22;7588;62.368;25.902;2022-08-11T08:15:14;25.60;99.90
14985;DHT22;7588;62.368;25.902;2022-08-11T08:18:02;25.70;99.90
14985;DHT22;7588;62.368;25.902;2022-08-11T08:20:44;25.80;99.90
14985;DHT22;7588;62.368;25.902;2022-08-11T08:23:10;25.10;99.90
14985;DHT22;7588;62.368;25.902;2022-08-11T08:25:42;24.70;99.90
14985;DHT22;7588;62.368;25.902;2022-08-11T08:28:15;24.30;99.90
14985;DHT22;7588;62.368;25.902;2022-08-11T08:30:43;24.00;99.90
14985;DHT22;7588;62.368;25.902;2022-08-11T08:33:31;23.50;99.90
14985;DHT22;7588;62.368;25.902;2022-08-11T08:36:00;23.40;99.90
14985;DHT22;7588;62.368;25.902;2022-08-11T08:42:10;24.20;99.90
14985;DHT22;7588;62.368;25.902;2022-08-11T08:44:41;24.30;99.90
14985;DHT22;7588;62.368;25.902;2022-08-11T08:47:11;24.40;99.90
14985;DHT22;7588;62.368;25.902;2022-08-11T08:49:43;24.60;99.90
14985;DHT22;7588;62.368;25.902;2022-08-11T08:52:15;24.80;99.90
14985;DHT22;7588;62.368;25.902;2022-08-11T08:54:43;24.90;99.90
14985;DHT22;7588;62.368;25.902;2022-08-11T08:57:11;24.90;99.90
14985;DHT22;7588;62.368;25.902;2022-08-11T08:59:44;24.60;99.90
14985;DHT22;7588;62.368;25.902;2022-08-11T09:02:12;24.20;99.90
14985;DHT22;7588;62.368;25.902;2022-08-11T09:04:39;23.90;99.90
14985;DHT22;7588;62.368;25.902;2022-08-11T09:07:15;23.80;99.90
14985;DHT22;7588;62.368;25.902;2022-08-11T09:09:49;24.00;99.90
14985;DHT22;7588;62.368;25.902;2022-08-11T09:12:18;24.10;99.90
14985;DHT22;7588;62.368;25.902;2022-08-11T09:14:46;24.00;99.90
14985;DHT22;7588;62.368;25.902;2022-08-11T09:17:29;23.90;99.90
14985;DHT22;7588;62.368;25.902;2022-08-11T09:20:03;23.90;99.90
14985;DHT22;7588;62.368;25.902;2022-08-11T09:22:34;23.90;99.90
14985;DHT22;7588;62.368;25.902;2022-08-11T09:25:21;24.00;99.90
14985;DHT22;7588;62.368;25.902;2022-08-11T09:28:12;24.10;99.90
14985;DHT22;7588;62.368;25.902;2022-08-11T09:30:44;24.30;99.90
14985;DHT22;7588;62.368;25.902;2022-08-11T09:33:13;24.00;99.90
14985;DHT22;7588;62.368;25.902;2022-08-11T09:35:41;23.90;99.90
14985;DHT22;7588;62.368;25.902;2022-08-11T09:38:13;23.80;99.90
14985;DHT22;7588;62.368;25.902;2022-08-11T09:40:58;23.70;99.90
14985;DHT22;7588;62.368;25.902;2022-08-11T09:43:25;24.00;99.90
14985;DHT22;7588;62.368;25.902;2022-08-11T09:46:11;24.20;99.90
14985;DHT22;7588;62.368;25.902;2022-08-11T09:48:42;24.30;99.90
14985;DHT22;7588;62.368;25.902;2022-08-11T09:51:09;24.10;99.90
14985;DHT22;7588;62.368;25.902;2022-08-11T09:53:41;24.00;99.90
14985;DHT22;7588;62.368;25.902;2022-08-11T09:56:20;23.90;99.90
14985;DHT22;7588;62.368;25.902;2022-08-11T09:59:06;23.70;99.90
14985;DHT22;7588;62.368;25.902;2022-08-11T10:01:42;23.60;99.90
14985;DHT22;7588;62.368;25.902;2022-08-11T10:04:15;23.90;99.90
14985;DHT22;7588;62.368;25.902;2022-08-11T10:06:47;24.20;99.90
14985;DHT22;7588;62.368;25.902;2022-08-11T10:09:57;24.20;99.90
14985;DHT22;7588;62.368;25.902;2022-08-11T10:12:31;24.30;99.90
14985;DHT22;7588;62.368;25.902;2022-08-11T10:15:02;24.80;99.90
14985;DHT22;7588;62.368;25.902;2022-08-11T10:17:50;25.10;99.90
14985;DHT22;7588;62.368;25.902;2022-08-11T10:20:37;25.70;99.90
14985;DHT22;7588;62.368;25.902;2022-08-11T10:23:04;26.10;99.90
14985;DHT22;7588;62.368;25.902;2022-08-11T10:25:51;26.60;99.90
14985;DHT22;7588;62.368;25.902;2022-08-11T10:28:36;26.80;99.50
14985;DHT22;7588;62.368;25.902;2022-08-11T10:31:05;27.20;99.70
14985;DHT22;7588;62.368;25.902;2022-08-11T10:33:51;27.60;98.70
14985;DHT22;7588;62.368;25.902;2022-08-11T10:36:49;27.50;97.40
14985;DHT22;7588;62.368;25.902;2022-08-11T10:39:17;27.20;98.00
14985;DHT22;7588;62.368;25.902;2022-08-11T10:41:45;26.40;99.10
14985;DHT22;7588;62.368;25.902;2022-08-11T10:44:51;26.10;99.60
14985;DHT22;7588;62.368;25.902;2022-08-11T10:47:18;25.60;99.90
14985;DHT22;7588;62.368;25.902;2022-08-11T10:50:07;25.60;99.80
14985;DHT22;7588;62.368;25.902;2022-08-11T10:52:53;25.40;99.50
14985;DHT22;7588;62.368;25.902;2022-08-11T10:55:38;25.20;99.60
14985;DHT22;7588;62.368;25.902;2022-08-11T10:58:25;25.20;99.90
14985;DHT22;7588;62.368;25.902;2022-08-11T11:01:10;25.50;99.30
14985;DHT22;7588;62.368;25.902;2022-08-11T11:03:37;25.70;98.80
14985;DHT22;7588;62.368;25.902;2022-08-11T11:08:44;26.00;99.50
14985;DHT22;7588;62.368;25.902;2022-08-11T11:11:22;26.10;98.90
14985;DHT22;7588;62.368;25.902;2022-08-11T11:14:08;25.40;98.30
14985;DHT22;7588;62.368;25.902;2022-08-11T11:16:55;24.70;99.30
14985;DHT22;7588;62.368;25.902;2022-08-11T11:19:40;24.50;99.60
14985;DHT22;7588;62.368;25.902;2022-08-11T11:22:07;24.50;99.90
14985;DHT22;7588;62.368;25.902;2022-08-11T11:25:04;24.80;99.90
14985;DHT22;7588;62.368;25.902;2022-08-11T11:30:32;24.70;99.90
14985;DHT22;7588;62.368;25.902;2022-08-11T11:33:06;24.60;99.90
14985;DHT22;7588;62.368;25.902;2022-08-11T11:35:59;24.60;99.90
14985;DHT22;7588;62.368;25.902;2022-08-11T11:38:29;24.30;99.90
14985;DHT22;7588;62.368;25.902;2022-08-11T11:40:55;24.20;99.90
14985;DHT22;7588;62.368;25.902;2022-08-11T11:43:41;24.10;99.90
14985;DHT22;7588;62.368;25.902;2022-08-11T11:46:07;23.90;99.90
14985;DHT22;7588;62.368;25.902;2022-08-11T11:48:35;24.10;99.90
14985;DHT22;7588;62.368;25.902;2022-08-11T11:51:01;24.30;99.90
14985;DHT22;7588;62.368;25.902;2022-08-11T11:53:28;24.20;99.90
14985;DHT22;7588;62.368;25.902;2022-08-11T11:55:55;24.30;99.90
14985;DHT22;7588;62.368;25.902;2022-08-11T11:58:21;24.30;99.90
14985;DHT22;7588;62.368;25.902;2022-08-11T12:01:06;24.10;99.90
14985;DHT22;7588;62.368;25.902;2022-08-11T12:03:43;24.10;99.90
14985;DHT22;7588;62.368;25.902;2022-08-11T12:06:10;24.20;99.90
14985;DHT22;7588;62.368;25.902;2022-08-11T12:08:39;24.20;99.90
14985;DHT22;7588;62.368;25.902;2022-08-11T12:11:10;24.20;99.90
14985;DHT22;7588;62.368;25.902;2022-08-11T12:13:57;24.00;99.90
14985;DHT22;7588;62.368;25.902;2022-08-11T12:16:25;23.90;99.90
14985;DHT22;7588;62.368;25.902;2022-08-11T12:18:55;23.70;99.90
14985;DHT22;7588;62.368;25.902;2022-08-11T12:21:23;23.70;99.90
14985;DHT22;7588;62.368;25.902;2022-08-11T12:23:49;23.70;99.90
14985;DHT22;7588;62.368;25.902;2022-08-11T12:26:35;23.60;99.90
14985;DHT22;7588;62.368;25.902;2022-08-11T12:29:05;23.50;99.90
14985;DHT22;7588;62.368;25.902;2022-08-11T12:31:33;23.50;99.90
14985;DHT22;7588;62.368;25.902;2022-08-11T12:34:10;23.50;99.90
14985;DHT22;7588;62.368;25.902;2022-08-11T12:36:42;23.80;99.90
14985;DHT22;7588;62.368;25.902;2022-08-11T12:39:11;24.30;99.90
14985;DHT22;7588;62.368;25.902;2022-08-11T12:41:39;24.50;99.90
14985;DHT22;7588;62.368;25.902;2022-08-11T12:44:27;24.40;99.90
14985;DHT22;7588;62.368;25.902;2022-08-11T12:47:15;24.20;99.90
14985;DHT22;7588;62.368;25.902;2022-08-11T12:49:45;23.90;99.90
14985;DHT22;7588;62.368;25.902;2022-08-11T12:52:36;23.80;99.90
14985;DHT22;7588;62.368;25.902;2022-08-11T12:55:14;23.70;99.90
14985;DHT22;7588;62.368;25.902;2022-08-11T12:58:06;23.60;99.90
14985;DHT22;7588;62.368;25.902;2022-08-11T13:00:46;23.40;99.90
14985;DHT22;7588;62.368;25.902;2022-08-11T13:03:32;23.30;99.90
14985;DHT22;7588;62.368;25.902;2022-08-11T13:06:18;23.30;99.90
14985;DHT22;7588;62.368;25.902;2022-08-11T13:08:47;23.10;99.90
14985;DHT22;7588;62.368;25.902;2022-08-11T13:11:15;23.10;99.90
14985;DHT22;7588;62.368;25.902;2022-08-11T13:14:00;23.00;99.90
14985;DHT22;7588;62.368;25.902;2022-08-11T13:16:31;22.80;99.90
14985;DHT22;7588;62.368;25.902;2022-08-11T13:19:18;22.80;99.90
14985;DHT22;7588;62.368;25.902;2022-08-11T13:21:47;22.80;99.90
14985;DHT22;7588;62.368;25.902;2022-08-11T13:24:13;22.80;99.90
14985;DHT22;7588;62.368;25.902;2022-08-11T13:26:42;22.80;99.90
14985;DHT22;7588;62.368;25.902;2022-08-11T13:29:08;22.70;99.90
14985;DHT22;7588;62.368;25.902;2022-08-11T13:31:35;22.70;99.90
14985;DHT22;7588;62.368;25.902;2022-08-11T13:34:01;22.80;99.90
14985;DHT22;7588;62.368;25.902;2022-08-11T13:36:28;22.70;99.90
14985;DHT22;7588;62.368;25.902;2022-08-11T13:38:54;22.70;99.90
14985;DHT22;7588;62.368;25.902;2022-08-11T13:41:24;22.80;99.90
14985;DHT22;7588;62.368;25.902;2022-08-11T13:44:07;22.90;99.90
14985;DHT22;7588;62.368;25.902;2022-08-11T13:46:34;22.90;99.90
14985;DHT22;7588;62.368;25.902;2022-08-11T13:49:01;22.80;99.90
14985;DHT22;7588;62.368;25.902;2022-08-11T13:51:28;22.80;99.90
14985;DHT22;7588;62.368;25.902;2022-08-11T13:54:09;22.80;99.90
14985;DHT22;7588;62.368;25.902;2022-08-11T13:56:37;22.90;99.90
14985;DHT22;7588;62.368;25.902;2022-08-11T13:59:07;22.90;99.90
14985;DHT22;7588;62.368;25.902;2022-08-11T14:01:37;22.90;99.90
14985;DHT22;7588;62.368;25.902;2022-08-11T14:04:13;22.80;99.90
14985;DHT22;7588;62.368;25.902;2022-08-11T14:06:47;22.80;99.90
14985;DHT22;7588;62.368;25.902;2022-08-11T14:09:20;22.80;99.90
14985;DHT22;7588;62.368;25.902;2022-08-11T14:11:48;22.80;99.90
14985;DHT22;7588;62.368;25.902;2022-08-11T14:14:33;22.70;99.90
14985;DHT22;7588;62.368;25.902;2022-08-11T14:17:06;22.70;99.90
14985;DHT22;7588;62.368;25.902;2022-08-11T14:19:36;22.70;99.90
14985;DHT22;7588;62.368;25.902;2022-08-11T14:22:04;22.70;99.90
14985;DHT22;7588;62.368;25.902;2022-08-11T14:24:44;22.70;99.90
14985;DHT22;7588;62.368;25.902;2022-08-11T14:27:15;22.70;99.90
14985;DHT22;7588;62.368;25.902;2022-08-11T14:29:42;22.70;99.90
14985;DHT22;7588;62.368;25.902;2022-08-11T14:32:11;22.80;99.90
14985;DHT22;7588;62.368;25.902;2022-08-11T14:34:42;22.80;99.90
14985;DHT22;7588;62.368;25.902;2022-08-11T14:37:13;22.80;99.90
14985;DHT22;7588;62.368;25.902;2022-08-11T14:39:55;22.90;99.90
14985;DHT22;7588;62.368;25.902;2022-08-11T14:42:22;22.90;99.90
14985;DHT22;7588;62.368;25.902;2022-08-11T14:45:09;22.80;99.90
14985;DHT22;7588;62.368;25.902;2022-08-11T14:47:58;22.90;99.90
14985;DHT22;7588;62.368;25.902;2022-08-11T14:50:27;22.90;99.90
14985;DHT22;7588;62.368;25.902;2022-08-11T14:52:58;22.90;99.90
14985;DHT22;7588;62.368;25.902;2022-08-11T14:55:27;22.90;99.90
14985;DHT22;7588;62.368;25.902;2022-08-11T14:58:15;22.90;99.90
14985;DHT22;7588;62.368;25.902;2022-08-11T15:00:42;23.00;99.90
14985;DHT22;7588;62.368;25.902;2022-08-11T15:03:11;23.10;99.90
14985;DHT22;7588;62.368;25.902;2022-08-11T15:08:06;22.90;99.90
14985;DHT22;7588;62.368;25.902;2022-08-11T15:10:32;22.70;99.90
14985;DHT22;7588;62.368;25.902;2022-08-11T15:12:59;22.70;99.90
14985;DHT22;7588;62.368;25.902;2022-08-11T15:15:26;22.70;99.90
14985;DHT22;7588;62.368;25.902;2022-08-11T15:18:12;22.60;99.90
14985;DHT22;7588;62.368;25.902;2022-08-11T15:20:42;22.50;99.90
14985;DHT22;7588;62.368;25.902;2022-08-11T15:23:27;22.40;99.90
14985;DHT22;7588;62.368;25.902;2022-08-11T15:29:19;22.40;99.90
14985;DHT22;7588;62.368;25.902;2022-08-11T15:32:04;22.50;99.90
14985;DHT22;7588;62.368;25.902;2022-08-11T15:34:57;22.50;99.90
14985;DHT22;7588;62.368;25.902;2022-08-11T15:37:45;22.40;99.90
14985;DHT22;7588;62.368;25.902;2022-08-11T15:40:20;22.40;99.90
14985;DHT22;7588;62.368;25.902;2022-08-11T15:43:21;22.50;99.90
14985;DHT22;7588;62.368;25.902;2022-08-11T15:46:16;22.50;99.90
14985;DHT22;7588;62.368;25.902;2022-08-11T15:49:32;22.50;99.90
14985;DHT22;7588;62.368;25.902;2022-08-11T15:54:18;22.30;99.90
14985;DHT22;7588;62.368;25.902;2022-08-11T15:56:48;22.20;99.90
14985;DHT22;7588;62.368;25.902;2022-08-11T15:59:16;22.20;99.90
14985;DHT22;7588;62.368;25.902;2022-08-11T16:02:02;22.10;99.90
14985;DHT22;7588;62.368;25.902;2022-08-11T16:04:55;22.00;99.90
14985;DHT22;7588;62.368;25.902;2022-08-11T16:07:26;22.00;99.90
14985;DHT22;7588;62.368;25.902;2022-08-11T16:12:40;21.90;99.90
14985;DHT22;7588;62.368;25.902;2022-08-11T16:15:09;21.90;99.90
14985;DHT22;7588;62.368;25.902;2022-08-11T16:18:00;21.90;99.90
14985;DHT22;7588;62.368;25.902;2022-08-11T16:20:27;21.80;99.90
14985;DHT22;7588;62.368;25.902;2022-08-11T16:22:58;21.90;99.90
14985;DHT22;7588;62.368;25.902;2022-08-11T16:25:25;21.90;99.90
14985;DHT22;7588;62.368;25.902;2022-08-11T16:27:56;21.80;99.90
14985;DHT22;7588;62.368;25.902;2022-08-11T16:30:34;21.80;99.90
14985;DHT22;7588;62.368;25.902;2022-08-11T16:33:01;21.70;99.90
14985;DHT22;7588;62.368;25.902;2022-08-11T16:35:31;21.60;99.90
14985;DHT22;7588;62.368;25.902;2022-08-11T16:38:18;21.60;99.90
14985;DHT22;7588;62.368;25.902;2022-08-11T16:41:07;21.50;99.90
14985;DHT22;7588;62.368;25.902;2022-08-11T16:43:41;21.40;99.90
14985;DHT22;7588;62.368;25.902;2022-08-11T16:46:26;21.50;99.90
14985;DHT22;7588;62.368;25.902;2022-08-11T16:49:34;21.40;99.90
14985;DHT22;7588;62.368;25.902;2022-08-11T16:52:02;21.40;99.90
14985;DHT22;7588;62.368;25.902;2022-08-11T16:54:33;21.30;99.90
14985;DHT22;7588;62.368;25.902;2022-08-11T16:57:25;21.30;99.90
14985;DHT22;7588;62.368;25.902;2022-08-11T17:00:12;21.10;99.90
14985;DHT22;7588;62.368;25.902;2022-08-11T17:02:44;21.00;99.90
14985;DHT22;7588;62.368;25.902;2022-08-11T17:05:32;20.90;99.90
14985;DHT22;7588;62.368;25.902;2022-08-11T17:08:21;20.90;99.90
14985;DHT22;7588;62.368;25.902;2022-08-11T17:11:08;20.70;99.90
14985;DHT22;7588;62.368;25.902;2022-08-11T17:14:04;20.80;99.90
14985;DHT22;7588;62.368;25.902;2022-08-11T17:16:34;20.80;99.90
14985;DHT22;7588;62.368;25.902;2022-08-11T17:21:40;20.80;99.90
14985;DHT22;7588;62.368;25.902;2022-08-11T17:24:27;20.70;99.90
14985;DHT22;7588;62.368;25.902;2022-08-11T17:26:54;20.60;99.90
14985;DHT22;7588;62.368;25.902;2022-08-11T17:29:31;20.50;99.90
14985;DHT22;7588;62.368;25.902;2022-08-11T17:32:02;20.50;99.90
14985;DHT22;7588;62.368;25.902;2022-08-11T17:34:48;20.50;99.90
14985;DHT22;7588;62.368;25.902;2022-08-11T17:37:34;20.50;99.90
14985;DHT22;7588;62.368;25.902;2022-08-11T17:40:04;20.50;99.90
14985;DHT22;7588;62.368;25.902;2022-08-11T17:42:32;20.40;99.90
14985;DHT22;7588;62.368;25.902;2022-08-11T17:45:19;20.30;99.90
14985;DHT22;7588;62.368;25.902;2022-08-11T17:48:04;20.30;99.90
14985;DHT22;7588;62.368;25.902;2022-08-11T17:53:25;20.10;99.90
14985;DHT22;7588;62.368;25.902;2022-08-11T17:56:11;20.00;99.90
14985;DHT22;7588;62.368;25.902;2022-08-11T17:58:58;20.00;99.90
14985;DHT22;7588;62.368;25.902;2022-08-11T18:01:46;19.80;99.90
14985;DHT22;7588;62.368;25.902;2022-08-11T18:04:14;19.70;99.90
14985;DHT22;7588;62.368;25.902;2022-08-11T18:06:41;19.50;99.90
14985;DHT22;7588;62.368;25.902;2022-08-11T18:09:11;19.40;99.90
14985;DHT22;7588;62.368;25.902;2022-08-11T18:11:57;19.20;99.90
14985;DHT22;7588;62.368;25.902;2022-08-11T18:14:46;19.10;99.90
14985;DHT22;7588;62.368;25.902;2022-08-11T18:17:31;19.00;99.90
14985;DHT22;7588;62.368;25.902;2022-08-11T18:20:17;18.90;99.90
14985;DHT22;7588;62.368;25.902;2022-08-11T18:23:04;18.90;99.90
14985;DHT22;7588;62.368;25.902;2022-08-11T18:25:49;18.80;99.90
14985;DHT22;7588;62.368;25.902;2022-08-11T18:28:43;18.70;99.90
14985;DHT22;7588;62.368;25.902;2022-08-11T18:31:31;18.70;99.90
14985;DHT22;7588;62.368;25.902;2022-08-11T18:34:20;18.70;99.90
14985;DHT22;7588;62.368;25.902;2022-08-11T18:37:17;18.50;99.90
14985;DHT22;7588;62.368;25.902;2022-08-11T18:40:13;18.30;99.90
14985;DHT22;7588;62.368;25.902;2022-08-11T18:43:03;18.10;99.90
14985;DHT22;7588;62.368;25.902;2022-08-11T18:45:51;18.00;99.90
14985;DHT22;7588;62.368;25.902;2022-08-11T18:48:38;17.90;99.90
14985;DHT22;7588;62.368;25.902;2022-08-11T18:51:25;17.70;99.90
14985;DHT22;7588;62.368;25.902;2022-08-11T18:54:12;17.60;99.90
14985;DHT22;7588;62.368;25.902;2022-08-11T18:56:59;17.50;99.90
14985;DHT22;7588;62.368;25.902;2022-08-11T18:59:45;17.40;99.90
14985;DHT22;7588;62.368;25.902;2022-08-11T19:02:31;17.30;99.90
14985;DHT22;7588;62.368;25.902;2022-08-11T19:05:18;17.40;99.90
14985;DHT22;7588;62.368;25.902;2022-08-11T19:08:04;17.20;99.90
14985;DHT22;7588;62.368;25.902;2022-08-11T19:10:50;17.00;99.90
14985;DHT22;7588;62.368;25.902;2022-08-11T19:13:35;16.70;99.90
14985;DHT22;7588;62.368;25.902;2022-08-11T19:16:23;16.50;99.90
14985;DHT22;7588;62.368;25.902;2022-08-11T19:19:08;16.30;99.90
14985;DHT22;7588;62.368;25.902;2022-08-11T19:21:53;16.20;99.90
14985;DHT22;7588;62.368;25.902;2022-08-11T19:24:38;16.00;99.90
14985;DHT22;7588;62.368;25.902;2022-08-11T19:27:26;16.00;99.90
14985;DHT22;7588;62.368;25.902;2022-08-11T19:30:11;15.90;99.90
14985;DHT22;7588;62.368;25.902;2022-08-11T19:32:57;15.70;99.90
14985;DHT22;7588;62.368;25.902;2022-08-11T19:35:43;15.60;99.90
14985;DHT22;7588;62.368;25.902;2022-08-11T19:38:29;15.50;99.90
14985;DHT22;7588;62.368;25.902;2022-08-11T19:41:15;15.30;99.90
14985;DHT22;7588;62.368;25.902;2022-08-11T19:44:00;15.30;99.90
14985;DHT22;7588;62.368;25.902;2022-08-11T19:46:47;15.20;99.90
14985;DHT22;7588;62.368;25.902;2022-08-11T19:49:33;15.10;99.90
14985;DHT22;7588;62.368;25.902;2022-08-11T19:52:18;15.00;99.90
14985;DHT22;7588;62.368;25.902;2022-08-11T19:55:05;14.80;99.90
14985;DHT22;7588;62.368;25.902;2022-08-11T19:57:50;14.70;99.90
14985;DHT22;7588;62.368;25.902;2022-08-11T20:00:36;14.60;99.90
14985;DHT22;7588;62.368;25.902;2022-08-11T20:03:20;14.50;99.90
14985;DHT22;7588;62.368;25.902;2022-08-11T20:06:07;14.50;99.90